createdAt,value
2022-09-21T00:02:10.665Z,10.10
2022-09-21T00:04:38.173Z,10.00
2022-09-21T00:07:05.718Z,10.00
2022-09-21T00:09:33.262Z,9.90
2022-09-21T00:12:00.808Z,10.10
2022-09-21T00:14:28.361Z,10.10
2022-09-21T00:16:55.967Z,10.30
2022-09-21T00:19:24.189Z,10.10
2022-09-21T00:21:51.784Z,10.10
2022-09-21T00:24:19.307Z,10.10
2022-09-21T00:26:46.832Z,9.90
2022-09-21T00:29:14.378Z,9.90
2022-09-21T00:31:41.940Z,9.80
2022-09-21T00:34:09.552Z,9.80
2022-09-21T00:36:37.026Z,9.70
2022-09-21T00:39:04.547Z,9.60
2022-09-21T00:41:32.848Z,9.70
2022-09-21T00:44:18.798Z,9.70
2022-09-21T00:46:46.333Z,9.70
2022-09-21T00:49:13.845Z,9.60
2022-09-21T00:51:41.389Z,9.50
2022-09-21T00:54:09.692Z,9.60
2022-09-21T00:56:37.247Z,9.60
2022-09-21T00:59:04.857Z,9.50
2022-09-21T01:01:32.347Z,9.40
2022-09-21T01:03:59.881Z,9.30
2022-09-21T01:06:27.445Z,9.20
2022-09-21T01:08:55.777Z,9.10
2022-09-21T01:11:35.925Z,9.00
2022-09-21T01:14:27.595Z,9.00
2022-09-21T01:17:09.808Z,9.00
2022-09-21T01:20:05.672Z,8.80
2022-09-21T01:22:49.019Z,8.80
2022-09-21T01:25:25.554Z,8.80
2022-09-21T01:28:13.911Z,8.70
2022-09-21T01:30:44.608Z,8.70
2022-09-21T01:33:18.749Z,8.60
2022-09-21T01:35:49.001Z,8.60
2022-09-21T01:38:16.527Z,8.50
2022-09-21T01:40:44.113Z,8.50
2022-09-21T01:43:12.363Z,8.50
2022-09-21T01:45:39.935Z,8.40
2022-09-21T01:48:08.210Z,8.40
2022-09-21T01:50:38.197Z,8.40
2022-09-21T01:53:09.138Z,8.30
2022-09-21T01:55:37.451Z,8.30
2022-09-21T01:58:07.408Z,8.30
2022-09-21T02:00:34.975Z,8.30
2022-09-21T02:03:11.133Z,8.20
2022-09-21T02:05:38.667Z,8.20
2022-09-21T02:08:06.211Z,8.20
2022-09-21T02:10:33.757Z,8.10
2022-09-21T02:13:01.283Z,8.10
2022-09-21T02:15:29.564Z,8.10
2022-09-21T02:18:09.860Z,8.10
2022-09-21T02:20:37.394Z,8.00
2022-09-21T02:23:10.560Z,8.00
2022-09-21T02:25:57.355Z,8.20
2022-09-21T02:28:27.446Z,8.20
2022-09-21T02:30:57.695Z,8.20
2022-09-21T02:33:30.632Z,8.10
2022-09-21T02:35:58.157Z,8.10
2022-09-21T02:38:37.675Z,8.00
2022-09-21T02:41:07.612Z,7.90
2022-09-21T02:43:47.967Z,8.10
2022-09-21T02:46:25.412Z,8.10
2022-09-21T02:48:56.358Z,8.00
2022-09-21T02:51:26.846Z,8.00
2022-09-21T02:53:54.391Z,7.90
2022-09-21T02:56:22.733Z,8.10
2022-09-21T02:58:53.526Z,8.10
2022-09-21T03:01:21.057Z,8.10
2022-09-21T03:03:49.386Z,8.00
2022-09-21T03:06:16.931Z,8.00
2022-09-21T03:08:44.464Z,7.90
2022-09-21T03:11:12.334Z,7.90
2022-09-21T03:13:39.858Z,7.90
2022-09-21T03:16:07.484Z,7.80
2022-09-21T03:18:34.940Z,7.80
2022-09-21T03:21:02.464Z,7.80
2022-09-21T03:23:29.976Z,8.00
2022-09-21T03:25:57.551Z,8.00
2022-09-21T03:28:25.086Z,7.90
2022-09-21T03:30:52.667Z,8.00
2022-09-21T03:33:20.159Z,8.00
2022-09-21T03:35:50.673Z,7.90
2022-09-21T03:38:19.025Z,7.70
2022-09-21T03:40:46.562Z,7.70
2022-09-21T03:43:14.085Z,7.60
2022-09-21T03:45:41.620Z,7.50
2022-09-21T03:48:09.165Z,7.50
2022-09-21T03:50:36.689Z,7.50
2022-09-21T03:53:04.215Z,7.50
2022-09-21T03:55:31.778Z,7.50
2022-09-21T03:57:59.303Z,7.50
2022-09-21T04:00:26.830Z,7.50
2022-09-21T04:02:54.409Z,7.50
2022-09-21T04:05:21.900Z,7.50
2022-09-21T04:07:50.187Z,7.40
2022-09-21T04:10:18.631Z,7.40
2022-09-21T04:12:46.167Z,7.40
2022-09-21T04:15:16.595Z,7.30
2022-09-21T04:17:44.170Z,7.30
2022-09-21T04:20:11.694Z,7.50
2022-09-21T04:22:43.390Z,7.60
2022-09-21T04:25:07.582Z,7.70
2022-09-21T04:27:35.884Z,7.70
2022-09-21T04:30:03.409Z,7.60
2022-09-21T04:32:30.963Z,7.60
2022-09-21T04:34:58.499Z,7.60
2022-09-21T04:37:26.023Z,7.50
2022-09-21T04:39:53.579Z,7.50
2022-09-21T04:42:21.103Z,7.70
2022-09-21T04:44:48.627Z,7.60
2022-09-21T04:47:16.191Z,7.60
2022-09-21T04:49:43.716Z,7.50
2022-09-21T04:52:12.916Z,7.40
2022-09-21T04:54:39.584Z,7.50
2022-09-21T04:57:07.109Z,7.50
2022-09-21T04:59:34.654Z,7.40
2022-09-21T05:02:02.227Z,7.40
2022-09-21T05:04:29.743Z,7.30
2022-09-21T05:06:57.277Z,7.20
2022-09-21T05:09:43.175Z,7.20
2022-09-21T05:12:10.710Z,7.10
2022-09-21T05:14:38.225Z,7.10
2022-09-21T05:17:06.597Z,7.20
2022-09-21T05:19:34.899Z,7.10
2022-09-21T05:22:02.444Z,7.10
2022-09-21T05:24:30.786Z,7.00
2022-09-21T05:26:58.323Z,6.90
2022-09-21T05:29:25.914Z,6.90
2022-09-21T05:31:59.179Z,6.90
2022-09-21T05:34:54.136Z,6.80
2022-09-21T05:37:40.880Z,7.00
2022-09-21T05:40:08.593Z,7.00
2022-09-21T05:42:36.107Z,6.90
2022-09-21T05:45:03.673Z,6.80
2022-09-21T05:47:33.659Z,7.00
2022-09-21T05:50:22.175Z,7.00
2022-09-21T05:53:01.763Z,6.90
2022-09-21T05:55:36.358Z,6.70
2022-09-21T05:58:04.679Z,6.60
2022-09-21T06:00:32.194Z,6.60
2022-09-21T06:03:27.790Z,6.60
2022-09-21T06:05:55.336Z,6.60
2022-09-21T06:08:22.870Z,6.60
2022-09-21T06:10:57.454Z,6.60
2022-09-21T06:13:25.757Z,6.50
2022-09-21T06:15:53.282Z,6.50
2022-09-21T06:18:21.633Z,6.50
2022-09-21T06:20:49.168Z,6.50
2022-09-21T06:23:16.703Z,6.50
2022-09-21T06:25:44.307Z,6.50
2022-09-21T06:28:11.823Z,6.50
2022-09-21T06:30:39.416Z,6.50
2022-09-21T06:33:07.689Z,6.50
2022-09-21T06:35:35.223Z,6.50
2022-09-21T06:38:02.758Z,6.50
2022-09-21T06:40:30.390Z,6.50
2022-09-21T06:42:57.898Z,6.60
2022-09-21T06:45:25.432Z,6.60
2022-09-21T06:47:53.765Z,6.70
2022-09-21T06:50:21.298Z,6.70
2022-09-21T06:52:48.844Z,6.80
2022-09-21T06:55:16.417Z,7.00
2022-09-21T06:57:43.971Z,7.00
2022-09-21T07:00:11.626Z,7.10
2022-09-21T07:02:39.189Z,7.10
2022-09-21T07:05:06.792Z,7.10
2022-09-21T07:07:34.320Z,7.20
2022-09-21T07:10:05.739Z,7.30
2022-09-21T07:12:29.427Z,7.60
2022-09-21T07:14:56.961Z,7.70
2022-09-21T07:17:25.330Z,7.90
2022-09-21T07:19:52.848Z,7.90
2022-09-21T07:22:20.373Z,8.00
2022-09-21T07:24:48.243Z,8.10
2022-09-21T07:27:15.826Z,8.20
2022-09-21T07:29:43.322Z,8.20
2022-09-21T07:32:11.654Z,8.40
2022-09-21T07:34:39.188Z,8.30
2022-09-21T07:37:06.734Z,8.50
2022-09-21T07:39:35.077Z,8.70
2022-09-21T07:42:02.601Z,8.70
2022-09-21T07:44:30.135Z,8.80
2022-09-21T07:46:57.700Z,9.10
2022-09-21T07:49:25.231Z,9.20
2022-09-21T07:51:52.759Z,9.30
2022-09-21T07:54:20.334Z,9.40
2022-09-21T07:56:47.868Z,9.50
2022-09-21T07:59:15.402Z,9.80
2022-09-21T08:01:42.976Z,9.90
2022-09-21T08:04:10.514Z,10.00
2022-09-21T08:06:38.085Z,10.00
2022-09-21T08:09:05.649Z,10.10
2022-09-21T08:11:33.216Z,10.10
2022-09-21T08:14:00.711Z,10.20
2022-09-21T08:16:28.321Z,10.30
2022-09-21T08:18:55.826Z,10.40
2022-09-21T08:21:23.352Z,10.50
2022-09-21T08:23:50.936Z,10.60
2022-09-21T08:26:18.473Z,10.70
2022-09-21T08:28:46.006Z,10.80
2022-09-21T08:31:13.678Z,10.90
2022-09-21T08:33:41.115Z,11.00
2022-09-21T08:36:08.649Z,11.10
2022-09-21T08:38:37.365Z,11.30
2022-09-21T08:41:22.738Z,11.30
2022-09-21T08:43:50.336Z,11.50
2022-09-21T08:46:17.916Z,11.60
2022-09-21T08:48:45.405Z,11.70
2022-09-21T08:51:12.999Z,11.80
2022-09-21T08:53:46.057Z,12.00
2022-09-21T08:56:13.582Z,12.10
2022-09-21T08:58:41.168Z,12.20
2022-09-21T09:01:21.194Z,12.70
2022-09-21T09:04:03.479Z,12.60
2022-09-21T09:06:30.579Z,12.80
2022-09-21T09:10:25.528Z,13.20
2022-09-21T09:13:05.019Z,13.30
2022-09-21T09:15:51.974Z,13.40
2022-09-21T09:18:22.703Z,13.50
2022-09-21T09:20:50.237Z,13.40
2022-09-21T09:23:32.925Z,13.50
2022-09-21T09:26:03.787Z,13.60
2022-09-21T09:28:33.991Z,13.50
2022-09-21T09:31:10.875Z,13.70
2022-09-21T09:33:50.476Z,13.70
2022-09-21T09:36:30.107Z,13.70
2022-09-21T09:39:01.151Z,13.80
2022-09-21T09:41:34.436Z,14.00
2022-09-21T09:44:13.895Z,14.10
2022-09-21T09:46:56.675Z,14.10
2022-09-21T09:49:37.062Z,14.50
2022-09-21T09:52:04.620Z,14.50
2022-09-21T09:54:32.161Z,14.80
2022-09-21T09:56:59.699Z,14.80
2022-09-21T09:59:27.265Z,15.10
2022-09-21T10:02:06.552Z,15.40
2022-09-21T10:04:34.167Z,15.40
2022-09-21T10:07:01.608Z,15.40
2022-09-21T10:09:32.337Z,15.40
2022-09-21T10:12:04.736Z,15.50
2022-09-21T10:14:29.941Z,15.50
2022-09-21T10:16:57.477Z,15.60
2022-09-21T10:19:25.053Z,15.60
2022-09-21T10:21:55.234Z,15.60
2022-09-21T10:24:32.379Z,15.70
2022-09-21T10:27:14.989Z,15.70
2022-09-21T10:29:45.467Z,15.80
2022-09-21T10:32:15.334Z,16.00
2022-09-21T10:34:41.320Z,16.00
2022-09-21T10:37:23.933Z,16.00
2022-09-21T10:39:51.480Z,16.00
2022-09-21T10:42:19.781Z,16.00
2022-09-21T10:44:47.346Z,16.00
2022-09-21T10:47:23.348Z,16.00
2022-09-21T10:49:53.799Z,16.10
2022-09-21T10:52:22.117Z,16.20
2022-09-21T10:54:49.626Z,16.20
2022-09-21T10:57:18.854Z,16.40
2022-09-21T10:59:46.403Z,16.40
2022-09-21T11:02:29.137Z,16.50
2022-09-21T11:04:56.637Z,16.80
2022-09-21T11:07:32.786Z,16.90
2022-09-21T11:10:22.061Z,16.90
2022-09-21T11:12:50.359Z,17.00
2022-09-21T11:15:21.719Z,17.00
2022-09-21T11:17:51.754Z,17.00
2022-09-21T11:20:31.254Z,17.10
2022-09-21T11:22:58.837Z,17.30
2022-09-21T11:25:29.255Z,17.30
2022-09-21T11:28:15.411Z,17.40
2022-09-21T11:30:52.223Z,17.40
2022-09-21T11:33:28.389Z,17.40
2022-09-21T11:36:14.483Z,17.50
2022-09-21T11:38:57.548Z,17.50
2022-09-21T11:41:46.113Z,17.60
2022-09-21T11:44:28.693Z,17.80
2022-09-21T11:47:14.452Z,17.80
2022-09-21T11:49:48.003Z,17.80
2022-09-21T11:52:23.986Z,17.70
2022-09-21T11:55:13.142Z,17.90
2022-09-21T11:57:40.715Z,17.90
2022-09-21T12:00:13.922Z,17.90
2022-09-21T12:02:53.343Z,18.10
2022-09-21T12:05:46.052Z,18.20
2022-09-21T12:08:31.436Z,18.20
2022-09-21T12:11:17.059Z,18.30
2022-09-21T12:13:47.832Z,18.40
2022-09-21T12:16:39.240Z,18.40
2022-09-21T12:19:18.702Z,18.40
2022-09-21T12:21:46.271Z,18.40
2022-09-21T12:24:23.047Z,18.40
2022-09-21T12:26:51.526Z,18.50
2022-09-21T12:29:24.734Z,18.50
2022-09-21T12:31:55.024Z,18.50
2022-09-21T12:34:22.623Z,18.50
2022-09-21T12:37:02.441Z,18.60
2022-09-21T12:39:30.057Z,18.60
2022-09-21T12:42:01.165Z,18.60
2022-09-21T12:44:52.661Z,18.50
2022-09-21T12:47:20.196Z,18.50
2022-09-21T12:49:47.728Z,18.50
2022-09-21T12:52:16.061Z,18.50
2022-09-21T12:54:45.311Z,18.50
2022-09-21T12:57:29.746Z,18.50
2022-09-21T12:59:41.679Z,18.70
2022-09-21T13:02:18.018Z,18.70
2022-09-21T13:05:04.365Z,18.40
2022-09-21T13:07:50.192Z,18.40
2022-09-21T13:10:24.300Z,18.20
2022-09-21T13:12:51.831Z,18.20
2022-09-21T13:15:22.039Z,18.10
2022-09-21T13:17:49.623Z,18.30
2022-09-21T13:20:20.143Z,18.30
2022-09-21T13:22:47.668Z,18.30
2022-09-21T13:25:24.190Z,18.30
2022-09-21T13:28:10.105Z,18.30
2022-09-21T13:30:44.086Z,18.30
2022-09-21T13:33:20.340Z,18.30
2022-09-21T13:35:53.974Z,18.30
2022-09-21T13:38:31.472Z,18.50
2022-09-21T13:41:02.604Z,18.50
2022-09-21T13:43:52.283Z,18.50
2022-09-21T13:46:35.739Z,18.40
2022-09-21T13:49:03.272Z,18.40
2022-09-21T13:51:34.530Z,18.40
2022-09-21T13:54:02.214Z,18.40
2022-09-21T13:56:29.737Z,18.40
2022-09-21T13:58:58.051Z,18.70
2022-09-21T14:03:53.467Z,18.90
2022-09-21T14:06:23.423Z,19.00
2022-09-21T14:08:56.739Z,19.20
2022-09-21T14:11:24.256Z,19.30
2022-09-21T14:14:00.760Z,19.40
2022-09-21T14:16:33.714Z,19.40
2022-09-21T14:19:01.182Z,19.40
2022-09-21T14:21:28.733Z,19.60
2022-09-21T14:24:08.269Z,19.70
2022-09-21T14:26:35.791Z,19.80
2022-09-21T14:29:09.264Z,19.60
2022-09-21T14:31:36.901Z,19.40
2022-09-21T14:34:04.396Z,19.10
2022-09-21T14:36:38.668Z,18.90
2022-09-21T14:39:06.328Z,18.90
2022-09-21T14:41:33.787Z,18.70
2022-09-21T14:44:01.312Z,18.50
2022-09-21T14:46:32.051Z,18.60
2022-09-21T14:49:35.814Z,18.60
2022-09-21T14:52:24.988Z,18.50
2022-09-21T14:55:04.840Z,18.60
2022-09-21T14:58:00.781Z,18.70
2022-09-21T15:00:40.620Z,18.70
2022-09-21T15:03:29.570Z,18.80
2022-09-21T15:06:05.744Z,18.90
2022-09-21T15:09:04.029Z,19.40
2022-09-21T15:11:31.552Z,19.40
2022-09-21T15:13:59.085Z,19.50
2022-09-21T15:16:32.693Z,19.50
2022-09-21T15:19:09.081Z,19.80
2022-09-21T15:21:36.576Z,19.90
2022-09-21T15:24:04.182Z,19.80
2022-09-21T15:26:31.704Z,19.80
2022-09-21T15:29:09.953Z,19.80
2022-09-21T15:31:35.134Z,19.80
2022-09-21T15:34:02.647Z,19.80
2022-09-21T15:36:30.950Z,19.70
2022-09-21T15:38:58.565Z,19.70
2022-09-21T15:41:34.595Z,19.70
2022-09-21T15:44:14.300Z,19.70
2022-09-21T15:46:41.887Z,19.80
2022-09-21T15:49:13.043Z,20.10
2022-09-21T15:51:40.617Z,20.00
2022-09-21T15:54:08.150Z,20.10
2022-09-21T15:56:35.696Z,20.10
2022-09-21T15:59:09.014Z,20.10
2022-09-21T16:01:40.243Z,20.10
2022-09-21T16:04:07.893Z,20.10
2022-09-21T16:06:38.020Z,20.10
2022-09-21T16:09:26.920Z,20.00
2022-09-21T16:11:54.515Z,19.90
2022-09-21T16:14:40.836Z,19.80
2022-09-21T16:17:14.335Z,19.80
2022-09-21T16:19:44.519Z,19.80
2022-09-21T16:22:12.821Z,19.70
2022-09-21T16:24:46.352Z,19.70
2022-09-21T16:27:16.565Z,19.70
2022-09-21T16:29:44.094Z,19.60
2022-09-21T16:32:20.407Z,19.50
2022-09-21T16:34:47.932Z,19.40
2022-09-21T16:37:27.217Z,19.20
2022-09-21T16:39:54.758Z,19.30
2022-09-21T16:42:22.312Z,19.10
2022-09-21T16:44:49.876Z,19.20
2022-09-21T16:47:17.420Z,19.00
2022-09-21T16:49:44.955Z,19.00
2022-09-21T16:52:12.520Z,18.80
2022-09-21T16:54:40.064Z,18.50
2022-09-21T16:57:07.589Z,18.30
2022-09-21T16:59:35.174Z,18.00
2022-09-21T17:02:03.522Z,17.60
2022-09-21T17:04:30.999Z,17.60
2022-09-21T17:06:59.610Z,17.30
2022-09-21T17:09:32.873Z,17.30
2022-09-21T17:12:01.268Z,17.00
2022-09-21T17:14:28.742Z,17.00
2022-09-21T17:16:56.276Z,16.90
2022-09-21T17:19:24.578Z,16.70
2022-09-21T17:21:52.171Z,16.60
2022-09-21T17:24:45.810Z,16.50
2022-09-21T17:26:47.230Z,16.50
2022-09-21T17:29:21.440Z,16.20
2022-09-21T17:31:52.477Z,16.10
2022-09-21T17:34:26.511Z,16.10
2022-09-21T17:36:54.037Z,16.00
2022-09-21T17:39:21.570Z,15.90
2022-09-21T17:41:52.216Z,15.90
2022-09-21T17:44:19.752Z,15.80
2022-09-21T17:47:14.227Z,15.60
2022-09-21T17:49:41.759Z,15.80
2022-09-21T17:52:27.340Z,15.70
2022-09-21T17:54:55.633Z,15.30
2022-09-21T17:57:41.474Z,15.30
2022-09-21T18:00:21.027Z,15.10
2022-09-21T18:02:48.659Z,15.00
2022-09-21T18:05:25.115Z,14.80
2022-09-21T18:07:52.698Z,14.70
2022-09-21T18:10:20.284Z,14.60
2022-09-21T18:13:12.572Z,14.60
2022-09-21T18:15:42.717Z,14.60
2022-09-21T18:18:31.575Z,14.50
2022-09-21T18:20:59.023Z,14.40
2022-09-21T18:23:44.764Z,14.20
2022-09-21T18:26:12.426Z,14.10
2022-09-21T18:28:42.866Z,13.90
2022-09-21T18:31:22.198Z,13.80
2022-09-21T18:34:07.438Z,13.70
2022-09-21T18:36:35.789Z,13.70
2022-09-21T18:39:15.198Z,13.70
2022-09-21T18:41:48.581Z,13.70
2022-09-21T18:44:18.586Z,13.80
2022-09-21T18:46:56.086Z,13.60
2022-09-21T18:49:48.266Z,13.40
2022-09-21T18:52:15.850Z,13.30
2022-09-21T18:54:44.142Z,13.30
2022-09-21T18:57:11.688Z,13.20
2022-09-21T18:59:40.069Z,13.00
2022-09-21T19:02:14.783Z,12.90
2022-09-21T19:04:44.749Z,12.90
2022-09-21T19:07:21.075Z,12.80
2022-09-21T19:10:07.574Z,12.80
2022-09-21T19:12:47.465Z,12.80
2022-09-21T19:15:15.000Z,12.70
2022-09-21T19:17:45.531Z,12.60
2022-09-21T19:20:24.020Z,12.40
2022-09-21T19:22:54.809Z,12.30
2022-09-21T19:25:28.061Z,12.20
2022-09-21T19:27:59.455Z,12.10
2022-09-21T19:30:27.109Z,12.00
2022-09-21T19:32:54.673Z,12.00
2022-09-21T19:35:27.701Z,11.90
2022-09-21T19:37:55.996Z,11.70
2022-09-21T19:40:24.470Z,11.70
2022-09-21T19:43:10.727Z,11.60
2022-09-21T19:45:53.807Z,11.60
2022-09-21T19:48:21.265Z,11.60
2022-09-21T19:50:54.913Z,11.70
2022-09-21T19:53:40.989Z,11.70
2022-09-21T19:56:32.332Z,11.60
2022-09-21T19:59:18.201Z,11.80
2022-09-21T20:01:51.661Z,11.70
2022-09-21T20:04:37.404Z,11.50
2022-09-21T20:07:07.872Z,11.40
2022-09-21T20:09:38.403Z,11.20
2022-09-21T20:12:17.760Z,11.40
2022-09-21T20:14:45.286Z,11.30
2022-09-21T20:17:13.625Z,11.10
2022-09-21T20:19:41.171Z,11.00
2022-09-21T20:22:11.167Z,11.00
2022-09-21T20:24:50.665Z,10.90
2022-09-21T20:27:21.666Z,10.70
2022-09-21T20:29:49.200Z,10.70
2022-09-21T20:32:16.766Z,10.70
2022-09-21T20:34:44.290Z,10.60
2022-09-21T20:37:12.592Z,10.50
2022-09-21T20:39:40.167Z,10.50
2022-09-21T20:42:07.702Z,10.40
2022-09-21T20:44:35.236Z,10.30
2022-09-21T20:47:03.578Z,10.20
2022-09-21T20:49:31.496Z,10.20
2022-09-21T20:51:59.839Z,10.20
2022-09-21T20:54:27.414Z,10.10
2022-09-21T20:56:55.853Z,10.10
2022-09-21T20:59:23.399Z,10.00
2022-09-21T21:01:51.060Z,10.00
2022-09-21T21:04:18.577Z,9.90
2022-09-21T21:06:46.032Z,9.90
2022-09-21T21:09:14.364Z,9.80
2022-09-21T21:11:41.899Z,9.80
2022-09-21T21:14:09.435Z,9.80
2022-09-21T21:16:37.802Z,9.70
2022-09-21T21:19:05.311Z,9.70
2022-09-21T21:21:32.838Z,9.70
2022-09-21T21:24:18.566Z,9.70
2022-09-21T21:27:02.819Z,9.60
2022-09-21T21:29:13.645Z,9.60
2022-09-21T21:31:41.287Z,9.50
2022-09-21T21:34:08.752Z,9.50
2022-09-21T21:36:37.055Z,9.40
2022-09-21T21:39:04.738Z,9.40
2022-09-21T21:41:32.160Z,9.40
2022-09-21T21:43:59.690Z,9.60
2022-09-21T21:46:27.336Z,9.60
2022-09-21T21:48:55.542Z,9.40
2022-09-21T21:51:23.840Z,9.40
2022-09-21T21:53:51.390Z,9.30
2022-09-21T21:56:18.905Z,9.30
2022-09-21T21:58:46.439Z,9.20
2022-09-21T22:01:14.031Z,9.20
2022-09-21T22:03:41.519Z,9.30
2022-09-21T22:06:09.053Z,9.30
2022-09-21T22:08:37.376Z,9.20
2022-09-21T22:11:04.911Z,9.10
2022-09-21T22:13:35.013Z,9.10
2022-09-21T22:16:07.069Z,9.00
2022-09-21T22:18:34.566Z,8.90
2022-09-21T22:21:05.104Z,8.90
2022-09-21T22:23:32.678Z,8.80
2022-09-21T22:26:09.309Z,8.80
2022-09-21T22:28:37.623Z,8.70
2022-09-21T22:31:05.156Z,8.70
2022-09-21T22:33:35.369Z,8.70
2022-09-21T22:36:02.933Z,8.60
2022-09-21T22:38:30.448Z,8.60
2022-09-21T22:41:03.822Z,8.60
2022-09-21T22:43:31.652Z,8.50
2022-09-21T22:45:59.222Z,8.70
2022-09-21T22:48:27.490Z,8.70
2022-09-21T22:50:55.024Z,8.60
2022-09-21T22:53:23.327Z,8.60
2022-09-21T22:55:50.862Z,8.50
2022-09-21T22:58:19.175Z,8.40
2022-09-21T23:00:46.746Z,8.40
2022-09-21T23:03:14.983Z,8.30
2022-09-21T23:05:43.297Z,8.30
2022-09-21T23:08:10.829Z,8.30
2022-09-21T23:10:38.364Z,8.30
2022-09-21T23:13:06.706Z,8.20
2022-09-21T23:15:34.251Z,8.20
2022-09-21T23:18:01.776Z,8.20
2022-09-21T23:20:29.322Z,8.10
2022-09-21T23:22:57.633Z,8.30
2022-09-21T23:25:25.157Z,8.30
2022-09-21T23:27:53.501Z,8.20
2022-09-21T23:30:21.025Z,8.20
2022-09-21T23:32:48.567Z,8.10
2022-09-21T23:35:16.122Z,8.10
2022-09-21T23:37:43.646Z,8.00
2022-09-21T23:40:11.254Z,7.90
2022-09-21T23:42:38.782Z,7.90
2022-09-21T23:45:07.197Z,8.10
2022-09-21T23:47:34.730Z,8.00
2022-09-21T23:50:03.053Z,7.90
2022-09-21T23:52:30.579Z,7.90
2022-09-21T23:54:58.103Z,7.80
2022-09-21T23:57:25.667Z,7.80
2022-09-21T23:59:53.192Z,7.70
